Detall de PIREP

Printer-friendly versionPDF version

[2014/12/07 09:20:00]
Flight IATA:CT2113
Pilot Number:044
Company ICAO:CAT
Aircraft Type:B463/A
PAX:97
Aircraft Registration:PAX
Departing Airport: LEZL
Destination Airport: LEVC
Alternate Airport:LEAL
Online: VATSIM
Route:VIBAS B28 ASTRO
Flight Level:F240
No Slew and time accel
No pause
Crash detect
Detect pilot in Cockpit between each 30 and 45 minutes
09:20 Zero fuel Weight: 76741 Lbs, Fuel Weight: 10088 Lbs
09:20 VATSIM:LEZL 070900Z VRB02KT CAVOK 07/06 Q1029 NOSIG
09:20 VATSIM:LEVC 070900Z 27008KT CAVOK 10/M01 Q1023 NOSIG
09:22 Parking Brakes off
09:33 Take-off
09:33 Take off Weight: 86228 Lbs
09:33 Wind: 029º @ 003 Knots Heading: 089º
09:33 POS N37º 25´ 04´´ W005º 53´ 26´´
09:33 Flaps:1 at 167 Knots
09:33 Gear Up: 166 Knots
09:33 Flaps:0 at 154 Knots
09:42 TOC
09:42 Fuel Weight: 7986 Lb
09:48 Wind:309º@009 Knots Heading: 088º Ground Speed: 392 Knots Altitude 24432 ft
10:03 Wind:312º@031 Knots Heading: 042º Ground Speed: 372 Knots Altitude 24383 ft
10:11 TOD
10:11 Fuel Weight: 5287 Lb
10:18 Wind:301º@028 Knots Heading: 046º Ground Speed: 307 Knots Altitude 11538 ft
10:30 Flaps:1 at 191 Knots
10:32 Flaps:2 at 173 Knots
10:32 Gear Down: 149 Knots
10:32 Flaps:3 at 142 Knots
10:33 Wind:293º@010 Knots Heading: 295º Ground Speed: 129 Knots Altitude 1532 ft
10:33 Flaps:4 at 130 Knots
10:34 TouchDown:Rate -301 ft/min Speed: 115 Knots
10:35 VATSIM:LEVC 070930Z 29010KT CAVOK 11/M03 Q1024 NOSIG
10:35 Land
10:35 Wind:293º@010 Knots
10:35 Heading: 294º
10:35 Flight Duration: 01:02
10:35 Landing Weight: 81012 Lbs
10:35 POS N39º 29´ 21´´ W000º 28´ 55´´
10:40 Parking brakes on
10:40 Block to Block Duration: 01:18
10:40 Final Fuel: 4054 Lbls
10:40 Spent Fuel: 6033 Lbls
10:40 Flight Length: 327 NM
10:40 TOD Land Length: 104 NM

Exportar CSV

Powered by Drupal - Modified by Danger4k